Time;durP1;ratioP1;P1;durP2;ratioP2;P2;SDS_P1;SDS_P2;PMS_P1;PMS_P2;Temp;Humidity;BMP_temperature;BMP_pressure;BME280_temperature;BME280_humidity;BME280_pressure;Samples;Min_cycle;Max_cycle;Signal;HPM_P1;HPM_P2
2023/06/15 00:08:44;;;;;;;1999.90;999.90;;;18.70;87.70;;;;;;6703343;88;20192;-80
2023/06/15 00:18:48;;;;;;;1999.90;999.90;;;18.50;90.10;;;;;;6696718;88;20267;-80
2023/06/15 00:28:49;;;;;;;1999.90;999.90;;;18.20;91.60;;;;;;6673309;89;20191;-79
2023/06/15 00:38:49;;;;;;;1999.90;999.90;;;18.20;92.30;;;;;;6667223;89;20216;-80
2023/06/15 00:48:50;;;;;;;1999.90;999.90;;;17.90;94.70;;;;;;6664164;88;20214;-80
2023/06/15 00:58:51;;;;;;;1999.90;999.90;;;17.80;98.40;;;;;;6676719;89;20208;-80
2023/06/15 01:08:53;;;;;;;1999.90;999.90;;;17.80;97.50;;;;;;6668748;89;20247;-80
2023/06/15 01:18:57;;;;;;;1999.90;999.90;;;17.40;99.90;;;;;;6667656;89;20224;-79
2023/06/15 01:28:59;;;;;;;1999.90;999.90;;;17.20;99.90;;;;;;6674134;89;20214;-80
2023/06/15 01:39:00;;;;;;;1999.90;999.90;;;17.20;99.90;;;;;;6665683;88;20196;-80
2023/06/15 01:49:01;;;;;;;1999.90;999.90;;;17.20;99.90;;;;;;6671769;88;20767;-80
2023/06/15 01:59:02;;;;;;;1999.90;999.90;;;17.10;99.90;;;;;;6670690;89;20768;-79
2023/06/15 02:09:03;;;;;;;1999.90;999.90;;;16.80;99.90;;;;;;6649224;89;20314;-79
2023/06/15 02:19:04;;;;;;;1999.90;999.90;;;16.50;99.90;;;;;;6648441;89;20523;-80
2023/06/15 02:29:05;;;;;;;1999.90;999.90;;;16.40;99.90;;;;;;6650037;89;20213;-79
2023/06/15 02:39:06;;;;;;;1999.90;999.90;;;16.30;99.90;;;;;;6653837;89;20192;-79
2023/06/15 02:49:27;;;;;;;1999.90;999.90;;;16.20;99.90;;;;;;6692915;77;20245;-79
2023/06/15 02:59:28;;;;;;;1999.90;999.90;;;16.20;99.90;;;;;;6758281;88;20282;-78
2023/06/15 03:09:29;;;;;;;1999.90;999.90;;;16.20;99.90;;;;;;6757096;88;20192;-79
2023/06/15 03:19:29;;;;;;;1999.90;999.90;;;16.20;99.90;;;;;;6757628;87;20213;-78
2023/06/15 03:29:31;;;;;;;1999.90;999.90;;;16.10;99.90;;;;;;6760842;88;20255;-79
2023/06/15 03:39:32;;;;;;;1999.90;999.90;;;16.00;99.90;;;;;;6758467;88;20185;-78
2023/06/15 03:49:32;;;;;;;1999.90;999.90;;;15.90;99.90;;;;;;6762847;88;20208;-80
2023/06/15 03:59:33;;;;;;;1999.90;999.90;;;15.90;99.90;;;;;;6764457;87;20388;-79
2023/06/15 04:09:33;;;;;;;1999.90;999.90;;;15.90;99.90;;;;;;6758763;87;20227;-80
2023/06/15 04:19:34;;;;;;;1999.90;999.90;;;15.90;99.90;;;;;;6756341;88;20249;-80
2023/06/15 04:29:35;;;;;;;1999.90;999.90;;;15.80;99.90;;;;;;6759872;88;20209;-79
2023/06/15 04:39:35;;;;;;;1999.90;999.90;;;15.70;99.90;;;;;;6755047;88;20192;-80
2023/06/15 04:49:36;;;;;;;1999.90;999.90;;;15.70;99.90;;;;;;6759457;87;20251;-79
2023/06/15 04:59:39;;;;;;;1999.90;999.90;;;15.90;99.90;;;;;;6757980;88;20682;-80
2023/06/15 05:09:40;;;;;;;1999.90;999.90;;;16.00;99.90;;;;;;6761684;88;20207;-79
2023/06/15 05:19:41;;;;;;;1999.90;999.90;;;16.10;99.90;;;;;;6756800;88;20651;-80
2023/06/15 05:29:41;;;;;;;1999.90;999.90;;;16.10;99.90;;;;;;6770521;87;20581;-78
2023/06/15 05:39:42;;;;;;;1999.90;999.90;;;16.40;99.90;;;;;;6776223;88;20736;-78
2023/06/15 05:49:43;;;;;;;1999.90;999.90;;;16.60;99.90;;;;;;6765505;88;20222;-81
2023/06/15 05:59:47;;;;;;;1999.90;999.90;;;17.00;99.90;;;;;;6771201;88;20234;-80
2023/06/15 06:09:47;;;;;;;1999.90;999.90;;;17.50;99.90;;;;;;6765387;87;20214;-81
2023/06/15 06:19:51;;;;;;;1999.90;999.90;;;18.50;99.90;;;;;;6764302;88;20205;-80
2023/06/15 06:29:52;;;;;;;1999.90;999.90;;;19.50;99.90;;;;;;6765361;88;20192;-80
2023/06/15 06:39:52;;;;;;;1999.90;999.90;;;20.20;99.90;;;;;;6764132;88;20204;-81
2023/06/15 06:49:53;;;;;;;1999.90;999.90;;;20.80;99.90;;;;;;6763162;88;20188;-81
2023/06/15 06:59:53;;;;;;;1999.90;999.90;;;21.50;98.80;;;;;;6763016;87;20223;-79
2023/06/15 07:09:54;;;;;;;1999.90;999.90;;;21.80;96.80;;;;;;6756568;88;20251;-79
2023/06/15 07:19:54;;;;;;;1999.90;999.90;;;22.60;96.30;;;;;;6759423;87;20693;-79
2023/06/15 07:29:55;;;;;;;1999.90;999.90;;;23.20;95.10;;;;;;6754895;87;20304;-80
2023/06/15 07:39:55;;;;;;;1999.90;999.90;;;23.30;94.80;;;;;;6761448;87;20196;-81
2023/06/15 07:49:56;;;;;;;1999.90;999.90;;;23.90;93.00;;;;;;6768672;87;20296;-80
2023/06/15 08:00:00;;;;;;;1999.90;999.90;;;24.50;92.20;;;;;;6762254;88;20219;-80
2023/06/15 08:10:00;;;;;;;1999.90;999.90;;;25.20;90.70;;;;;;6762310;88;20177;-79
2023/06/15 08:20:05;;;;;;;1999.90;999.90;;;24.60;90.70;;;;;;6768775;88;20210;-80
2023/06/15 08:30:06;;;;;;;1999.90;999.90;;;25.50;90.30;;;;;;6766630;88;20191;-80
2023/06/15 08:40:07;;;;;;;1999.90;999.90;;;26.80;86.60;;;;;;6766438;88;20316;-78
2023/06/15 09:01:10;;;;;;;1999.90;999.90;;;28.10;82.90;;;;;;6777817;87;20199;-82
2023/06/15 09:11:11;;;;;;;1999.90;999.90;;;27.80;81.70;;;;;;6781850;87;20198;-82
2023/06/15 10:13:10;;;;;;;1999.90;999.90;;;30.90;65.50;;;;;;5189422;76;20262;-85
2023/06/15 11:24:15;;;;;;;1999.90;999.90;;;33.20;61.20;;;;;;5158972;76;20159;-82
2023/06/15 14:55:41;;;;;;;1999.90;999.90;;;34.40;53.40;;;;;;6670804;89;20614;-78
2023/06/15 15:05:42;;;;;;;1999.90;999.90;;;34.50;52.50;;;;;;6663847;89;20179;-78
2023/06/15 15:15:43;;;;;;;1999.90;999.90;;;33.80;53.40;;;;;;6669825;88;20213;-78
2023/06/15 15:25:44;;;;;;;1999.90;999.90;;;33.20;53.40;;;;;;6675473;88;20187;-79
2023/06/15 15:35:44;;;;;;;1999.90;999.90;;;31.90;54.00;;;;;;6678409;89;20203;-77
2023/06/15 15:45:45;;;;;;;1999.90;999.90;;;31.30;54.40;;;;;;6677179;88;20191;-78
2023/06/15 15:55:46;;;;;;;1999.90;999.90;;;31.30;54.70;;;;;;6674053;88;20314;-78
2023/06/15 16:05:46;;;;;;;1999.90;999.90;;;31.40;53.60;;;;;;6676699;88;20218;-77
2023/06/15 16:15:47;;;;;;;1999.90;999.90;;;32.00;52.10;;;;;;6674598;88;20179;-77
2023/06/15 16:25:47;;;;;;;1999.90;999.90;;;32.30;52.10;;;;;;6676553;88;20220;-78
2023/06/15 16:35:48;;;;;;;1999.90;999.90;;;30.80;52.80;;;;;;6676682;88;20226;-77
2023/06/15 16:45:48;;;;;;;1999.90;999.90;;;29.80;54.20;;;;;;6695510;88;20222;-78
2023/06/15 16:55:49;;;;;;;1999.90;999.90;;;29.00;55.10;;;;;;6676329;88;20225;-77
2023/06/15 17:05:50;;;;;;;1999.90;999.90;;;29.40;54.70;;;;;;6671183;88;20255;-76
2023/06/15 17:15:51;;;;;;;1999.90;999.90;;;29.80;54.70;;;;;;6679865;88;20228;-77
2023/06/15 17:25:51;;;;;;;1999.90;999.90;;;30.10;54.20;;;;;;6675585;88;20269;-80
2023/06/15 17:35:52;;;;;;;1999.90;999.90;;;29.40;52.80;;;;;;6693412;87;20246;-78
2023/06/15 17:45:52;;;;;;;1999.90;999.90;;;28.90;53.00;;;;;;6695110;87;20942;-79
2023/06/15 17:55:58;;;;;;;1999.90;999.90;;;28.80;53.10;;;;;;6690285;88;20188;-80
2023/06/15 18:05:59;;;;;;;1999.90;999.90;;;28.40;54.70;;;;;;6685356;89;20212;-80
2023/06/15 18:16:00;;;;;;;1999.90;999.90;;;28.10;55.20;;;;;;6687214;89;20208;-80
2023/06/15 18:26:00;;;;;;;1999.90;999.90;;;27.80;55.30;;;;;;6691050;89;20492;-80
2023/06/15 18:36:01;;;;;;;1999.90;999.90;;;27.30;57.00;;;;;;6689537;89;20934;-81
2023/06/15 18:46:01;;;;;;;1999.90;999.90;;;26.90;58.10;;;;;;6692692;87;20218;-82
2023/06/15 18:56:02;;;;;;;1999.90;999.90;;;26.60;58.20;;;;;;6655726;88;20225;-80
2023/06/15 19:06:02;;;;;;;1999.90;999.90;;;26.30;59.20;;;;;;6675015;88;20227;-80
2023/06/15 19:16:04;;;;;;;1999.90;999.90;;;26.00;59.90;;;;;;6670142;89;20879;-79
2023/06/15 19:26:15;;;;;;;1999.90;999.90;;;25.80;60.50;;;;;;6671711;89;20321;-80
2023/06/15 19:36:17;;;;;;;1999.90;999.90;;;25.40;61.30;;;;;;6699258;88;20191;-81
2023/06/15 19:46:19;;;;;;;1999.90;999.90;;;25.10;62.10;;;;;;6692939;88;20200;-82
2023/06/15 19:56:22;;;;;;;1999.90;999.90;;;24.80;63.20;;;;;;6707578;87;20217;-77
2023/06/15 20:06:27;;;;;;;1999.90;999.90;;;24.60;64.40;;;;;;6663436;88;20210;-77
2023/06/15 20:16:29;;;;;;;1999.90;999.90;;;24.20;65.40;;;;;;6666214;88;20597;-79
2023/06/15 20:26:31;;;;;;;1999.90;999.90;;;23.80;67.20;;;;;;6664776;88;20180;-76
2023/06/15 20:36:33;;;;;;;1999.90;999.90;;;23.50;67.50;;;;;;6670685;88;20322;-77
2023/06/15 20:46:33;;;;;;;1999.90;999.90;;;23.20;67.80;;;;;;6675096;88;20188;-76
2023/06/15 20:56:34;;;;;;;1999.90;999.90;;;23.00;68.70;;;;;;6703990;88;20282;-77
2023/06/15 21:06:34;;;;;;;1999.90;999.90;;;22.50;69.50;;;;;;6680401;88;20191;-76
2023/06/15 21:16:35;;;;;;;1999.90;999.90;;;22.20;71.00;;;;;;6664419;88;20176;-76
2023/06/15 21:26:35;;;;;;;1999.90;999.90;;;21.90;72.20;;;;;;6668629;88;20662;-76
2023/06/15 21:36:36;;;;;;;1999.90;999.90;;;21.80;73.60;;;;;;6687119;88;20225;-77
2023/06/15 21:46:36;;;;;;;1999.90;999.90;;;21.60;74.20;;;;;;6664347;89;20192;-76
2023/06/15 21:56:37;;;;;;;1999.90;999.90;;;21.40;75.10;;;;;;6660613;88;20224;-75
2023/06/15 22:06:38;;;;;;;1999.90;999.90;;;21.30;75.90;;;;;;6665456;89;20274;-76
2023/06/15 22:16:39;;;;;;;1999.90;999.90;;;21.20;74.90;;;;;;6663317;89;20324;-76
2023/06/15 22:26:43;;;;;;;1999.90;999.90;;;21.00;76.90;;;;;;6669960;88;20626;-76
2023/06/15 22:36:44;;;;;;;;;;;20.60;76.60;;;;;;6669279;89;20705;-76
2023/06/15 22:46:46;;;;;;;1999.90;999.90;;;20.40;76.80;;;;;;6662959;89;20073;-76
2023/06/15 22:56:47;;;;;;;1999.90;999.90;;;20.10;77.70;;;;;;6664475;88;20187;-76
2023/06/15 23:06:48;;;;;;;1999.90;999.90;;;19.80;78.50;;;;;;6666344;89;20309;-76
2023/06/15 23:16:49;;;;;;;1999.90;999.90;;;19.40;79.20;;;;;;6673631;88;20701;-76
2023/06/15 23:26:52;;;;;;;1999.90;999.90;;;19.20;81.20;;;;;;6683994;88;20308;-76
2023/06/15 23:36:53;;;;;;;1999.90;999.90;;;19.20;81.50;;;;;;6664826;88;20331;-76
2023/06/15 23:46:53;;;;;;;1999.90;999.90;;;19.00;82.70;;;;;;6667107;88;20257;-76
2023/06/15 23:56:54;;;;;;;1999.90;999.90;;;18.80;85.40;;;;;;6667481;88;20176;-76
